TimeEDT,TemperatureF,Dew PointF,Humidity,Sea Level PressureIn,VisibilityMPH,Wind Direction,Wind SpeedMPH,Gust SpeedMPH,PrecipitationIn,Events,Conditions,WindDirDegrees,DateUTC
12:56 AM,42.8,42.8,100,-9999,0.0,SSE,31.1,39.1,N/A,Fog-Rain,Light Rain Showers,150,2013-05-09 04:56:00
1:51 AM,41.0,41.0,100,-9999,0.0,SSE,27.6,41.4,N/A,Fog-Rain,Light Rain Showers,150,2013-05-09 05:51:00
2:49 AM,42.8,42.8,100,-9999,0.0,SE,28.8,33.4,N/A,Fog-Rain,Light Rain Showers,140,2013-05-09 06:49:00
3:51 AM,42.8,42.8,100,-9999,0.0,SSE,15.0,25.3,N/A,Fog-Rain,Light Rain,150,2013-05-09 07:51:00
4:50 AM,41.0,41.0,100,-9999,0.0,SSW,24.2,-,N/A,Fog-Rain,Light Rain,200,2013-05-09 08:50:00
5:48 AM,41.0,41.0,100,-9999,0.0,South,19.6,-,N/A,Fog,Fog,190,2013-05-09 09:48:00
6:49 AM,41.0,41.0,100,-9999,0.1,South,17.3,-,N/A,Fog,Fog,190,2013-05-09 10:49:00
7:48 AM,42.8,41.0,93,-9999,35.0,SSW,10.4,-,N/A,,Mostly Cloudy,200,2013-05-09 11:48:00
8:51 AM,44.6,37.4,76,-9999,35.0,SSW,11.5,-,N/A,,Scattered Clouds,200,2013-05-09 12:51:00
9:47 AM,46.4,41.0,81,-9999,35.0,SSW,13.8,-,N/A,,Partly Cloudy,200,2013-05-09 13:47:00
10:58 AM,46.4,42.8,87,-9999,5.0,South,13.8,-,N/A,,Scattered Clouds,190,2013-05-09 14:58:00
11:56 AM,46.4,46.4,100,-9999,0.1,South,13.8,21.9,N/A,Fog,Fog,170,2013-05-09 15:56:00
12:58 PM,48.2,41.0,76,-9999,0.5,South,15.0,-,N/A,Fog,Fog,180,2013-05-09 16:58:00
1:50 PM,46.4,42.8,87,-9999,0.2,South,13.8,-,N/A,Fog,Fog,190,2013-05-09 17:50:00
2:59 PM,42.8,42.8,100,-9999,0.1,South,12.7,-,N/A,Fog,Fog,170,2013-05-09 18:59:00
3:49 PM,41.0,41.0,100,-9999,0.1,SSE,11.5,-,N/A,Fog-Rain,Light Rain Showers,160,2013-05-09 19:49:00
4:49 PM,41.0,41.0,100,-9999,0.1,South,12.7,-,N/A,Fog-Rain,Light Rain Showers,190,2013-05-09 20:49:00
5:57 PM,41.0,39.2,93,-9999,15.0,South,5.8,-,N/A,Rain,Light Rain Showers,180,2013-05-09 21:57:00
6:47 PM,39.2,39.2,100,-9999,0.1,SSW,9.2,-,N/A,Fog,Fog,210,2013-05-09 22:47:00
7:54 PM,41.0,39.2,93,-9999,20.0,South,5.8,-,N/A,,Mostly Cloudy,190,2013-05-09 23:54:00
8:55 PM,41.0,37.4,87,-9999,20.0,South,3.5,-,N/A,Rain,Light Rain Showers,180,2013-05-10 00:55:00
9:53 PM,42.8,39.2,87,-9999,15.0,WNW,9.2,-,N/A,,Drizzle,300,2013-05-10 01:53:00
10:47 PM,39.2,39.2,100,-9999,0.1,NW,11.5,-,N/A,Fog,Fog,320,2013-05-10 02:47:00
11:54 PM,39.2,39.2,100,-9999,0.1,NNW,5.8,-,N/A,Fog,Fog,340,2013-05-10 03:54:00